createdAt,value
2022-10-11T00:01:41.291Z,6.26
2022-10-11T00:04:07.889Z,6.24
2022-10-11T00:06:34.459Z,6.22
2022-10-11T00:09:00.875Z,6.21
2022-10-11T00:11:27.353Z,6.19
2022-10-11T00:13:53.736Z,6.16
2022-10-11T00:16:20.307Z,6.14
2022-10-11T00:18:46.789Z,6.12
2022-10-11T00:21:14.731Z,6.09
2022-10-11T00:23:42.370Z,6.07
2022-10-11T00:26:10.914Z,6.05
2022-10-11T00:28:38.066Z,6.04
2022-10-11T00:31:10.401Z,6.04
2022-10-11T00:33:36.853Z,6.01
2022-10-11T00:36:04.164Z,6.00
2022-10-11T00:38:32.104Z,5.96
2022-10-11T00:40:59.992Z,5.93
2022-10-11T00:43:28.696Z,5.90
2022-10-11T00:45:58.218Z,5.87
2022-10-11T00:48:30.822Z,5.87
2022-10-11T00:50:59.751Z,5.87
2022-10-11T00:53:28.334Z,5.89
2022-10-11T00:56:03.188Z,5.87
2022-10-11T00:58:30.698Z,5.85
2022-10-11T01:00:57.917Z,5.82
2022-10-11T01:03:26.796Z,5.79
2022-10-11T01:05:53.523Z,5.77
2022-10-11T01:08:20.788Z,5.75
2022-10-11T01:10:47.646Z,5.73
2022-10-11T01:13:26.317Z,5.72
2022-10-11T01:16:08.562Z,5.70
2022-10-11T01:18:38.848Z,5.73
2022-10-11T01:21:21.602Z,5.71
2022-10-11T01:24:38.188Z,5.67
2022-10-11T01:27:38.362Z,5.62
2022-10-11T01:30:21.246Z,5.60
2022-10-11T01:32:56.009Z,5.57
2022-10-11T01:35:36.954Z,5.56
2022-10-11T01:38:34.175Z,5.55
2022-10-11T01:41:16.294Z,5.53
2022-10-11T01:43:44.075Z,5.52
2022-10-11T01:46:11.700Z,5.49
2022-10-11T01:48:52.790Z,5.47
2022-10-11T01:51:28.328Z,5.43
2022-10-11T01:54:11.454Z,5.41
2022-10-11T01:56:56.708Z,5.40
2022-10-11T01:59:28.522Z,5.40
2022-10-11T02:02:03.356Z,5.39
2022-10-11T02:04:55.158Z,5.39
2022-10-11T02:08:02.496Z,5.37
2022-10-11T02:10:28.875Z,5.35
2022-10-11T02:13:01.926Z,5.32
2022-10-11T02:15:31.629Z,5.33
2022-10-11T02:18:02.025Z,5.34
2022-10-11T02:20:31.964Z,5.34
2022-10-11T02:23:07.490Z,5.32
2022-10-11T02:25:36.176Z,5.30
2022-10-11T02:28:07.248Z,5.28
2022-10-11T02:30:35.795Z,5.25
2022-10-11T02:33:05.648Z,5.23
2022-10-11T02:35:38.427Z,5.24
2022-10-11T02:38:17.734Z,5.24
2022-10-11T02:40:48.423Z,5.23
2022-10-11T02:43:25.096Z,5.22
2022-10-11T02:45:56.551Z,5.20
2022-10-11T02:48:25.216Z,5.17
2022-10-11T02:50:53.530Z,5.16
2022-10-11T02:53:21.814Z,5.13
2022-10-11T02:55:50.286Z,5.12
2022-10-11T02:58:16.769Z,5.10
2022-10-11T03:00:43.819Z,5.10
2022-10-11T03:03:10.269Z,5.11
2022-10-11T03:05:40.674Z,5.10
2022-10-11T03:08:12.230Z,5.12
2022-10-11T03:10:39.948Z,5.12
2022-10-11T03:13:06.707Z,5.13
2022-10-11T03:15:33.251Z,5.16
2022-10-11T03:17:59.863Z,5.13
2022-10-11T03:20:26.575Z,5.12
2022-10-11T03:22:53.111Z,5.10
2022-10-11T03:25:19.632Z,5.08
2022-10-11T03:27:46.041Z,5.08
2022-10-11T03:30:17.321Z,5.08
2022-10-11T03:32:44.586Z,5.06
2022-10-11T03:35:11.032Z,5.04
2022-10-11T03:37:37.551Z,5.00
2022-10-11T03:40:06.017Z,4.97
2022-10-11T03:42:32.480Z,4.98
2022-10-11T03:44:59.967Z,5.00
2022-10-11T03:47:26.363Z,4.98
2022-10-11T03:49:53.195Z,4.96
2022-10-11T03:52:19.604Z,4.96
2022-10-11T03:54:46.027Z,4.96
2022-10-11T03:57:12.520Z,4.96
2022-10-11T03:59:38.913Z,4.97
2022-10-11T04:02:05.338Z,4.96
2022-10-11T04:04:31.916Z,4.95
2022-10-11T04:06:58.372Z,4.93
2022-10-11T04:09:24.783Z,4.91
2022-10-11T04:11:51.224Z,4.89
2022-10-11T04:14:17.673Z,4.87
2022-10-11T04:16:44.118Z,4.86
2022-10-11T04:19:10.562Z,4.83
2022-10-11T04:21:37.153Z,4.82
2022-10-11T04:24:04.102Z,4.80
2022-10-11T04:26:30.605Z,4.79
2022-10-11T04:28:57.180Z,4.76
2022-10-11T04:31:23.922Z,4.72
2022-10-11T04:33:50.472Z,4.68
2022-10-11T04:36:16.959Z,4.69
2022-10-11T04:38:43.366Z,4.66
2022-10-11T04:41:12.509Z,4.64
2022-10-11T04:43:39.557Z,4.63
2022-10-11T04:46:07.106Z,4.65
2022-10-11T04:48:33.986Z,4.68
2022-10-11T04:51:00.458Z,4.69
2022-10-11T04:53:26.883Z,4.72
2022-10-11T04:56:02.748Z,4.75
2022-10-11T04:58:30.841Z,4.77
2022-10-11T05:00:58.013Z,4.80
2022-10-11T05:03:25.371Z,4.82
2022-10-11T05:05:52.843Z,4.84
2022-10-11T05:08:19.747Z,4.86
2022-10-11T05:11:06.218Z,4.88
2022-10-11T05:13:34.302Z,4.90
2022-10-11T05:16:01.571Z,4.91
2022-10-11T05:18:28.795Z,4.92
2022-10-11T05:21:01.053Z,4.90
2022-10-11T05:23:29.293Z,4.91
2022-10-11T05:25:55.829Z,4.90
2022-10-11T05:28:22.545Z,4.90
2022-10-11T05:30:49.025Z,4.89
2022-10-11T05:33:15.932Z,4.89
2022-10-11T05:35:42.704Z,4.88
2022-10-11T05:38:09.196Z,4.86
2022-10-11T05:40:37.154Z,4.85
2022-10-11T05:43:04.326Z,4.86
2022-10-11T05:45:32.900Z,4.85
2022-10-11T05:47:59.637Z,4.83
2022-10-11T05:50:26.077Z,4.82
2022-10-11T05:52:52.487Z,4.81
2022-10-11T05:55:18.930Z,4.78
2022-10-11T05:57:45.408Z,4.76
2022-10-11T06:00:12.215Z,4.76
2022-10-11T06:02:38.865Z,4.74
2022-10-11T06:05:05.646Z,4.74
2022-10-11T06:07:32.547Z,4.74
2022-10-11T06:09:59.098Z,4.74
2022-10-11T06:12:25.498Z,4.75
2022-10-11T06:14:51.890Z,4.77
2022-10-11T06:17:18.418Z,4.78
2022-10-11T06:19:44.845Z,4.80
2022-10-11T06:22:12.421Z,4.82
2022-10-11T06:24:38.907Z,4.82
2022-10-11T06:27:05.382Z,4.85
2022-10-11T06:29:31.831Z,4.88
2022-10-11T06:31:58.571Z,4.92
2022-10-11T06:34:25.079Z,4.98
2022-10-11T06:36:51.883Z,5.01
2022-10-11T06:39:18.410Z,5.05
2022-10-11T06:41:44.902Z,5.10
2022-10-11T06:44:14.274Z,5.15
2022-10-11T06:46:41.259Z,5.19
2022-10-11T06:49:07.957Z,5.25
2022-10-11T06:51:35.705Z,5.31
2022-10-11T06:54:02.434Z,5.32
2022-10-11T06:56:31.213Z,5.35
2022-10-11T06:58:59.324Z,5.37
2022-10-11T07:01:27.176Z,5.40
2022-10-11T07:03:55.670Z,5.43
2022-10-11T07:06:25.318Z,5.47
2022-10-11T07:08:52.777Z,5.50
2022-10-11T07:11:22.645Z,5.52
2022-10-11T07:13:55.047Z,5.55
2022-10-11T07:16:22.623Z,5.58
2022-10-11T07:18:57.243Z,5.64
2022-10-11T07:21:27.351Z,5.68
2022-10-11T07:23:53.737Z,5.75
2022-10-11T07:26:20.225Z,5.80
2022-10-11T07:28:47.238Z,5.86
2022-10-11T07:31:16.963Z,5.93
2022-10-11T07:33:43.577Z,6.01
2022-10-11T07:36:11.371Z,6.07
2022-10-11T07:38:42.512Z,6.13
2022-10-11T07:41:09.643Z,6.20
2022-10-11T07:43:37.335Z,6.28
2022-10-11T07:46:05.371Z,6.32
2022-10-11T07:48:34.086Z,6.35
2022-10-11T07:51:07.856Z,6.39
2022-10-11T07:53:45.943Z,6.44
2022-10-11T07:56:14.866Z,6.47
2022-10-11T07:58:42.525Z,6.52
2022-10-11T08:01:10.353Z,6.55
2022-10-11T08:03:38.077Z,6.59
2022-10-11T08:06:07.792Z,6.62
2022-10-11T08:08:34.987Z,6.69
2022-10-11T08:11:01.837Z,6.76
2022-10-11T08:13:28.749Z,6.90
2022-10-11T08:15:55.466Z,7.04
2022-10-11T08:18:21.988Z,7.17
2022-10-11T08:20:48.835Z,7.35
2022-10-11T08:23:17.037Z,7.49
2022-10-11T08:25:46.613Z,7.65
2022-10-11T08:28:16.952Z,7.80
2022-10-11T08:30:51.291Z,7.97
2022-10-11T08:33:19.232Z,8.13
2022-10-11T08:35:45.974Z,8.29
2022-10-11T08:38:12.748Z,8.43
2022-10-11T08:40:49.390Z,8.46
2022-10-11T08:43:29.373Z,8.40
2022-10-11T08:45:59.797Z,8.37
2022-10-11T08:48:32.592Z,8.41
2022-10-11T08:50:59.603Z,8.55
2022-10-11T08:53:51.558Z,8.71
2022-10-11T08:56:20.188Z,8.87
2022-10-11T08:58:53.972Z,8.97
2022-10-11T09:01:25.889Z,9.14
2022-10-11T09:03:53.284Z,9.32
2022-10-11T09:06:34.818Z,9.43
2022-10-11T09:09:07.594Z,9.61
2022-10-11T09:11:40.110Z,9.73
2022-10-11T09:14:12.441Z,9.88
2022-10-11T09:16:54.198Z,10.06
2022-10-11T09:19:52.074Z,10.22
2022-10-11T09:22:42.581Z,10.37
2022-10-11T09:25:28.503Z,10.52
2022-10-11T09:28:33.337Z,10.57
2022-10-11T09:31:00.146Z,10.66
2022-10-11T09:33:37.053Z,10.79
2022-10-11T09:36:16.393Z,10.99
2022-10-11T09:39:06.523Z,11.11
2022-10-11T09:41:58.901Z,11.30
2022-10-11T09:44:28.032Z,11.40
2022-10-11T09:46:56.697Z,11.47
2022-10-11T09:49:29.295Z,11.60
2022-10-11T09:51:58.829Z,11.73
2022-10-11T09:54:44.494Z,11.82
2022-10-11T09:57:22.044Z,11.91
2022-10-11T10:00:22.201Z,12.06
2022-10-11T10:02:53.647Z,12.16
2022-10-11T10:05:21.927Z,12.19
2022-10-11T10:08:09.361Z,12.25
2022-10-11T10:10:59.900Z,12.44
2022-10-11T10:13:55.013Z,12.49
2022-10-11T10:16:33.755Z,12.51
2022-10-11T10:19:25.311Z,12.55
2022-10-11T10:21:54.566Z,12.47
2022-10-11T10:24:25.596Z,12.47
2022-10-11T10:27:22.596Z,12.49
2022-10-11T10:30:07.621Z,12.56
2022-10-11T10:32:43.760Z,12.72
2022-10-11T10:35:49.416Z,12.80
2022-10-11T10:38:29.532Z,12.87
2022-10-11T10:41:01.345Z,12.86
2022-10-11T10:43:36.684Z,12.90
2022-10-11T10:46:40.314Z,13.00
2022-10-11T10:52:05.957Z,13.12
2022-10-11T10:54:53.267Z,13.21
2022-10-11T10:57:25.250Z,13.37
2022-10-11T11:00:10.678Z,13.51
2022-10-11T11:03:01.646Z,13.61
2022-10-11T11:05:48.317Z,13.65
2022-10-11T11:08:37.474Z,13.81
2022-10-11T11:11:21.490Z,13.91
2022-10-11T11:14:04.004Z,14.05
2022-10-11T11:16:53.907Z,14.16
2022-10-11T11:19:23.093Z,14.14
2022-10-11T11:22:27.088Z,14.07
2022-10-11T11:25:12.652Z,13.96
2022-10-11T11:27:57.968Z,13.87
2022-10-11T11:30:43.557Z,13.80
2022-10-11T11:33:52.071Z,13.70
2022-10-11T11:36:26.294Z,13.63
2022-10-11T11:38:58.619Z,13.59
2022-10-11T11:41:38.184Z,13.53
2022-10-11T11:44:30.002Z,13.49
2022-10-11T11:47:10.605Z,13.47
2022-10-11T11:49:41.227Z,13.49
2022-10-11T11:52:14.012Z,13.49
2022-10-11T11:54:49.589Z,13.48
2022-10-11T11:57:31.531Z,13.47
2022-10-11T12:00:15.905Z,13.47
2022-10-11T12:03:03.594Z,13.52
2022-10-11T12:05:33.900Z,13.53
2022-10-11T12:08:07.214Z,13.53
2022-10-11T12:10:54.471Z,13.55
2022-10-11T12:13:42.405Z,13.86
2022-10-11T12:16:12.469Z,14.13
2022-10-11T12:18:52.586Z,14.34
2022-10-11T12:21:45.378Z,14.51
2022-10-11T12:24:23.332Z,14.64
2022-10-11T12:26:54.797Z,14.85
2022-10-11T12:29:28.533Z,15.01
2022-10-11T12:31:58.447Z,15.07
2022-10-11T12:34:34.255Z,15.12
2022-10-11T12:37:20.692Z,15.19
2022-10-11T12:39:58.324Z,15.29
2022-10-11T12:42:33.900Z,15.39
2022-10-11T12:45:12.996Z,15.50
2022-10-11T12:48:01.430Z,15.62
2022-10-11T12:50:54.672Z,15.61
2022-10-11T12:53:42.787Z,15.59
2022-10-11T12:56:14.162Z,15.50
2022-10-11T12:58:46.383Z,15.54
2022-10-11T13:01:17.501Z,15.54
2022-10-11T13:03:52.989Z,15.67
2022-10-11T13:06:26.882Z,15.72
2022-10-11T13:09:17.407Z,15.93
2022-10-11T13:11:56.062Z,16.08
2022-10-11T13:14:25.716Z,16.27
2022-10-11T13:17:14.973Z,16.36
2022-10-11T13:22:20.499Z,16.39
2022-10-11T13:24:47.073Z,16.33
2022-10-11T13:27:22.966Z,16.26
2022-10-11T13:29:51.227Z,16.03
2022-10-11T13:32:23.787Z,15.89
2022-10-11T13:37:25.742Z,15.67
2022-10-11T13:39:54.030Z,15.54
2022-10-11T13:42:27.662Z,15.45
2022-10-11T13:44:54.355Z,15.39
2022-10-11T13:47:26.728Z,15.34
2022-10-11T13:50:15.448Z,15.30
2022-10-11T13:52:56.097Z,15.23
2022-10-11T13:55:29.469Z,15.19
2022-10-11T13:57:58.325Z,15.15
2022-10-11T14:00:29.567Z,15.15
2022-10-11T14:03:19.087Z,15.12
2022-10-11T14:05:57.576Z,15.10
2022-10-11T14:08:42.314Z,15.13
2022-10-11T14:11:11.542Z,15.15
2022-10-11T14:13:46.786Z,15.20
2022-10-11T14:16:29.042Z,15.42
2022-10-11T14:18:58.365Z,15.61
2022-10-11T14:21:30.763Z,15.75
2022-10-11T14:24:05.790Z,15.80
2022-10-11T14:26:35.510Z,15.90
2022-10-11T14:29:06.918Z,15.98
2022-10-11T14:31:36.781Z,16.12
2022-10-11T14:34:05.834Z,16.18
2022-10-11T14:36:32.391Z,16.23
2022-10-11T14:38:58.811Z,16.28
2022-10-11T14:41:25.264Z,16.37
2022-10-11T14:43:51.802Z,16.47
2022-10-11T14:46:26.692Z,16.49
2022-10-11T14:48:56.321Z,16.45
2022-10-11T14:51:28.183Z,16.46
2022-10-11T14:53:54.722Z,16.47
2022-10-11T14:56:21.933Z,16.48
2022-10-11T14:58:48.963Z,16.45
2022-10-11T15:01:17.211Z,16.43
2022-10-11T15:03:43.827Z,16.39
2022-10-11T15:06:22.738Z,16.33
2022-10-11T15:08:49.271Z,16.37
2022-10-11T15:11:18.190Z,16.39
2022-10-11T15:13:45.856Z,16.37
2022-10-11T15:16:14.901Z,16.31
2022-10-11T15:18:41.952Z,16.13
2022-10-11T15:21:13.992Z,16.02
2022-10-11T15:23:40.413Z,15.89
2022-10-11T15:26:07.071Z,15.77
2022-10-11T15:28:33.986Z,15.67
2022-10-11T15:31:00.708Z,15.59
2022-10-11T15:33:27.214Z,15.53
2022-10-11T15:35:53.673Z,15.48
2022-10-11T15:38:24.143Z,15.46
2022-10-11T15:40:51.608Z,15.44
2022-10-11T15:43:24.213Z,15.42
2022-10-11T15:45:51.488Z,15.46
2022-10-11T15:48:20.523Z,15.42
2022-10-11T15:50:47.486Z,15.40
2022-10-11T15:53:15.238Z,15.35
2022-10-11T15:55:44.792Z,15.28
2022-10-11T15:58:15.481Z,15.22
2022-10-11T16:00:43.031Z,15.20
2022-10-11T16:03:12.089Z,15.14
2022-10-11T16:05:38.983Z,15.09
2022-10-11T16:08:05.522Z,15.04
2022-10-11T16:10:32.326Z,14.98
2022-10-11T16:12:58.891Z,14.92
2022-10-11T16:15:25.333Z,14.87
2022-10-11T16:17:51.900Z,14.76
2022-10-11T16:20:22.291Z,14.69
2022-10-11T16:22:49.685Z,14.59
2022-10-11T16:25:17.059Z,14.52
2022-10-11T16:27:44.191Z,14.41
2022-10-11T16:30:15.452Z,14.34
2022-10-11T16:32:42.042Z,14.27
2022-10-11T16:35:09.077Z,14.20
2022-10-11T16:37:36.293Z,14.10
2022-10-11T16:40:03.270Z,14.00
2022-10-11T16:42:29.697Z,13.90
2022-10-11T16:44:56.548Z,13.79
2022-10-11T16:47:23.008Z,13.71
2022-10-11T16:49:49.617Z,13.63
2022-10-11T16:52:16.419Z,13.54
2022-10-11T16:54:44.765Z,13.47
2022-10-11T16:57:12.384Z,13.39
2022-10-11T16:59:39.411Z,13.33
2022-10-11T17:02:07.170Z,13.29
2022-10-11T17:04:33.901Z,13.24
2022-10-11T17:07:00.534Z,13.18
2022-10-11T17:09:26.981Z,13.14
2022-10-11T17:11:53.517Z,13.13
2022-10-11T17:14:21.694Z,13.11
2022-10-11T17:16:48.194Z,13.09
2022-10-11T17:19:15.822Z,13.05
2022-10-11T17:21:42.841Z,12.99
2022-10-11T17:24:09.479Z,12.95
2022-10-11T17:26:35.968Z,12.90
2022-10-11T17:29:02.864Z,12.87
2022-10-11T17:31:30.107Z,12.81
2022-10-11T17:34:00.599Z,12.74
2022-10-11T17:36:34.700Z,12.72
2022-10-11T17:39:04.660Z,12.69
2022-10-11T17:41:32.336Z,12.67
2022-10-11T17:43:59.560Z,12.64
2022-10-11T17:46:27.662Z,12.59
2022-10-11T17:48:55.570Z,12.58
2022-10-11T17:51:22.550Z,12.56
2022-10-11T17:53:50.906Z,12.55
2022-10-11T17:56:25.265Z,12.54
2022-10-11T17:58:55.991Z,12.52
2022-10-11T18:01:25.621Z,12.47
2022-10-11T18:03:57.606Z,12.42
2022-10-11T18:06:26.753Z,12.40
2022-10-11T18:08:53.224Z,12.36
2022-10-11T18:11:20.883Z,12.29
2022-10-11T18:13:49.074Z,12.24
2022-10-11T18:16:19.287Z,12.20
2022-10-11T18:18:45.899Z,12.16
2022-10-11T18:21:13.111Z,12.12
2022-10-11T18:23:40.247Z,12.10
2022-10-11T18:26:29.383Z,12.03
2022-10-11T18:28:56.812Z,11.99
2022-10-11T18:31:27.378Z,11.90
2022-10-11T18:33:54.902Z,11.85
2022-10-11T18:36:24.051Z,11.83
2022-10-11T18:38:54.989Z,11.78
2022-10-11T18:41:24.178Z,11.76
2022-10-11T18:43:53.699Z,11.76
2022-10-11T18:46:21.419Z,11.73
2022-10-11T18:48:51.532Z,11.69
2022-10-11T18:51:48.979Z,11.64
2022-10-11T18:54:20.044Z,11.57
2022-10-11T18:56:47.780Z,11.49
2022-10-11T18:59:14.600Z,11.45
2022-10-11T19:01:44.157Z,11.43
2022-10-11T19:04:12.954Z,11.38
2022-10-11T19:06:43.155Z,11.32
2022-10-11T19:09:17.578Z,11.27
2022-10-11T19:11:45.265Z,11.21
2022-10-11T19:14:15.134Z,11.18
2022-10-11T19:16:45.459Z,11.14
2022-10-11T19:19:12.884Z,11.11
2022-10-11T19:21:39.747Z,11.04
2022-10-11T19:24:06.704Z,11.01
2022-10-11T19:26:36.791Z,10.98
2022-10-11T19:29:08.081Z,10.91
2022-10-11T19:31:37.262Z,10.85
2022-10-11T19:34:03.778Z,10.77
2022-10-11T19:36:35.522Z,10.72
2022-10-11T19:39:03.972Z,10.69
2022-10-11T19:41:30.418Z,10.63
2022-10-11T19:43:58.236Z,10.60
2022-10-11T19:46:50.348Z,10.58
2022-10-11T19:49:13.966Z,10.50
2022-10-11T19:51:40.394Z,10.46
2022-10-11T19:54:16.390Z,10.41
2022-10-11T19:56:44.484Z,10.36
2022-10-11T19:59:12.382Z,10.36
2022-10-11T20:01:40.078Z,10.30
2022-10-11T20:04:09.038Z,10.25
2022-10-11T20:06:39.086Z,10.21
2022-10-11T20:09:28.421Z,10.16
2022-10-11T20:11:55.805Z,10.14
2022-10-11T20:14:22.378Z,10.09
2022-10-11T20:16:50.193Z,10.07
2022-10-11T20:19:17.132Z,10.04
2022-10-11T20:21:43.971Z,10.02
2022-10-11T20:24:10.403Z,9.96
2022-10-11T20:26:36.839Z,9.91
2022-10-11T20:29:03.412Z,9.88
2022-10-11T20:31:32.989Z,9.84
2022-10-11T20:34:02.129Z,9.79
2022-10-11T20:36:30.129Z,9.78
2022-10-11T20:38:58.466Z,9.74
2022-10-11T20:41:28.334Z,9.68
2022-10-11T20:43:56.799Z,9.67
2022-10-11T20:46:25.470Z,9.62
2022-10-11T20:49:00.411Z,9.61
2022-10-11T20:51:29.431Z,9.58
2022-10-11T20:53:56.433Z,9.54
2022-10-11T20:56:23.124Z,9.51
2022-10-11T20:58:56.453Z,9.49
2022-10-11T21:01:29.082Z,9.43
2022-10-11T21:03:57.698Z,9.38
2022-10-11T21:06:24.317Z,9.35
2022-10-11T21:08:50.861Z,9.34
2022-10-11T21:11:17.319Z,9.30
2022-10-11T21:13:43.803Z,9.29
2022-10-11T21:16:15.163Z,9.23
2022-10-11T21:18:41.715Z,9.19
2022-10-11T21:21:10.814Z,9.17
2022-10-11T21:23:37.614Z,9.13
2022-10-11T21:26:06.498Z,9.11
2022-10-11T21:28:33.074Z,9.07
2022-10-11T21:31:10.127Z,9.05
2022-10-11T21:33:37.514Z,9.00
2022-10-11T21:36:09.431Z,8.97
2022-10-11T21:38:36.717Z,8.96
2022-10-11T21:41:08.461Z,8.95
2022-10-11T21:43:36.102Z,8.95
2022-10-11T21:46:15.939Z,8.94
2022-10-11T21:48:42.617Z,8.93
2022-10-11T21:53:46.117Z,8.95
2022-10-11T21:56:12.585Z,8.97
2022-10-11T21:58:39.062Z,8.98
2022-10-11T22:01:06.045Z,9.03
2022-10-11T22:03:32.571Z,9.06
2022-10-11T22:06:02.467Z,9.06
2022-10-11T22:08:29.536Z,9.07
2022-10-11T22:10:58.777Z,9.10
2022-10-11T22:13:26.922Z,9.16
2022-10-11T22:15:56.185Z,9.16
2022-10-11T22:18:23.582Z,9.17
2022-10-11T22:20:50.757Z,9.18
2022-10-11T22:23:18.957Z,9.20
2022-10-11T22:25:45.953Z,9.22
2022-10-11T22:28:12.676Z,9.23
2022-10-11T22:30:39.181Z,9.23
2022-10-11T22:33:05.578Z,9.18
2022-10-11T22:35:37.230Z,9.11
2022-10-11T22:38:06.155Z,9.12
2022-10-11T22:40:32.765Z,9.14
2022-10-11T22:42:59.154Z,9.12
2022-10-11T22:45:25.561Z,9.08
2022-10-11T22:47:51.966Z,9.06
2022-10-11T22:50:18.362Z,8.99
2022-10-11T22:52:44.777Z,9.00
2022-10-11T22:55:12.579Z,9.00
2022-10-11T22:57:40.555Z,8.98
2022-10-11T23:00:07.700Z,9.01
2022-10-11T23:02:34.222Z,9.00
2022-10-11T23:05:00.626Z,8.98
2022-10-11T23:07:27.027Z,8.95
2022-10-11T23:09:53.416Z,8.95
2022-10-11T23:12:19.840Z,8.92
2022-10-11T23:14:46.243Z,8.91
2022-10-11T23:17:12.657Z,8.92
2022-10-11T23:19:39.150Z,8.91
2022-10-11T23:22:05.579Z,8.85
2022-10-11T23:24:32.005Z,8.80
2022-10-11T23:26:58.453Z,8.78
2022-10-11T23:29:24.887Z,8.76
2022-10-11T23:31:51.644Z,8.71
2022-10-11T23:34:18.049Z,8.72
2022-10-11T23:36:44.454Z,8.71
2022-10-11T23:39:11.171Z,8.70
2022-10-11T23:41:37.807Z,8.67
2022-10-11T23:44:04.322Z,8.66
2022-10-11T23:46:30.783Z,8.64
2022-10-11T23:48:57.236Z,8.65
2022-10-11T23:51:23.667Z,8.60
2022-10-11T23:53:50.214Z,8.55
2022-10-11T23:56:16.798Z,8.53
2022-10-11T23:58:43.172Z,8.50
